Time,TemperatureF,DewpointF,PressureIn,WindDirection,WindDirectionDegrees,WindSpeedMPH,WindSpeedGustMPH,Humidity,HourlyPrecipIn,Conditions,Clouds,dailyrainin,SoftwareType,DateUTC
2013-04-12 00:03:00,31.0,22.0,30.12,ESE,121,10.0,-999.0,69,-99.99,,,-99.99,,2013-04-12 04:03:00,
2013-04-12 00:13:00,31.0,22.0,30.12,ESE,121,10.0,-999.0,69,-99.99,,,-99.99,,2013-04-12 04:13:00,
2013-04-12 00:23:00,30.0,23.0,30.12,ENE,76,8.0,-999.0,75,-99.99,,,-99.99,,2013-04-12 04:23:00,
2013-04-12 00:33:00,29.0,23.0,30.12,East,96,8.0,-999.0,78,-99.99,,,-99.99,,2013-04-12 04:33:00,
2013-04-12 00:43:00,29.0,23.0,30.12,East,96,8.0,-999.0,78,-99.99,,,-99.99,,2013-04-12 04:43:00,
2013-04-12 00:52:00,29.0,24.0,30.11,ENE,63,6.0,-999.0,80,-99.99,,,-99.99,,2013-04-12 04:52:00,
2013-04-12 01:03:00,28.0,25.0,30.11,East,90,12.0,-999.0,87,-99.99,,,-99.99,,2013-04-12 05:03:00,
2013-04-12 01:12:00,28.0,25.0,30.11,East,90,12.0,-999.0,87,-99.99,,,-99.99,,2013-04-12 05:12:00,
2013-04-12 01:23:00,27.0,24.0,30.08,ENE,69,9.0,-999.0,89,-99.99,,,-99.99,,2013-04-12 05:23:00,
2013-04-12 01:32:00,27.0,24.0,30.07,East,85,11.0,-999.0,90,-99.99,,,-99.99,,2013-04-12 05:32:00,
2013-04-12 01:42:00,27.0,24.0,30.07,East,85,11.0,-999.0,90,-99.99,,,-99.99,,2013-04-12 05:42:00,
2013-04-12 01:52:00,27.0,24.0,30.07,East,86,12.0,-999.0,90,-99.99,,,-99.99,,2013-04-12 05:52:00,
2013-04-12 02:02:00,27.0,24.0,30.07,ENE,69,11.0,-999.0,90,-99.99,,,-99.99,,2013-04-12 06:02:00,
2013-04-12 02:12:00,27.0,24.0,30.07,ENE,69,11.0,-999.0,90,-99.99,,,-99.99,,2013-04-12 06:12:00,
2013-04-12 02:22:00,27.0,25.0,30.04,ENE,67,12.0,-999.0,91,-99.99,,,-99.99,,2013-04-12 06:22:00,
2013-04-12 02:32:00,27.0,24.0,30.03,ESE,107,12.0,-999.0,90,-99.99,,,-99.99,,2013-04-12 06:32:00,
2013-04-12 02:42:00,27.0,24.0,30.03,ESE,107,12.0,-999.0,90,-99.99,,,-99.99,,2013-04-12 06:42:00,
2013-04-12 02:52:00,27.0,24.0,30.02,East,97,12.0,-999.0,88,-99.99,,,-99.99,,2013-04-12 06:52:00,
2013-04-12 03:02:00,27.0,24.0,30.01,ENE,69,11.0,-999.0,88,-99.99,,,-99.99,,2013-04-12 07:02:00,
2013-04-12 03:12:00,27.0,24.0,30.01,ENE,69,11.0,-999.0,88,-99.99,,,-99.99,,2013-04-12 07:12:00,
2013-04-12 03:22:00,27.0,24.0,29.98,East,84,12.0,-999.0,87,-99.99,,,-99.99,,2013-04-12 07:22:00,
2013-04-12 03:32:00,27.0,24.0,29.98,ENE,76,11.0,-999.0,87,-99.99,,,-99.99,,2013-04-12 07:32:00,
2013-04-12 03:42:00,27.0,24.0,29.98,ENE,76,11.0,-999.0,87,-99.99,,,-99.99,,2013-04-12 07:42:00,
2013-04-12 03:52:00,27.0,23.0,29.96,East,88,13.0,-999.0,86,-99.99,,,-99.99,,2013-04-12 07:52:00,
2013-04-12 04:03:00,27.0,23.0,29.95,ENE,68,12.0,-999.0,84,-99.99,,,-99.99,,2013-04-12 08:03:00,
2013-04-12 04:12:00,27.0,23.0,29.95,ENE,68,12.0,-999.0,84,-99.99,,,-99.99,,2013-04-12 08:12:00,
2013-04-12 04:22:00,27.0,23.0,29.93,ENE,69,12.0,-999.0,85,-99.99,,,-99.99,,2013-04-12 08:22:00,
2013-04-12 04:32:00,26.0,22.0,29.95,ENE,67,10.0,-999.0,86,-99.99,,,-99.99,,2013-04-12 08:32:00,
2013-04-12 04:42:00,26.0,22.0,29.95,ENE,67,10.0,-999.0,86,-99.99,,,-99.99,,2013-04-12 08:42:00,
2013-04-12 04:52:00,27.0,23.0,29.96,ENE,78,8.0,-999.0,86,-99.99,,,-99.99,,2013-04-12 08:52:00,
2013-04-12 05:02:00,27.0,23.0,29.95,NE,56,9.0,-999.0,85,-99.99,,,-99.99,,2013-04-12 09:02:00,
2013-04-12 05:12:00,27.0,23.0,29.95,NE,56,9.0,-999.0,85,-99.99,,,-99.99,,2013-04-12 09:12:00,
2013-04-12 05:22:00,27.0,23.0,29.93,NE,51,10.0,-999.0,86,-99.99,,,-99.99,,2013-04-12 09:22:00,
2013-04-12 05:33:00,26.0,23.0,29.92,ENE,76,11.0,-999.0,90,-99.99,,,-99.99,,2013-04-12 09:33:00,
2013-04-12 05:43:00,26.0,23.0,29.92,ENE,76,11.0,-999.0,90,-99.99,,,-99.99,,2013-04-12 09:43:00,
2013-04-12 05:52:00,26.0,24.0,29.92,ENE,75,9.0,-999.0,91,-99.99,,,-99.99,,2013-04-12 09:52:00,
2013-04-12 06:03:00,26.0,24.0,29.92,ENE,75,9.0,-999.0,91,-99.99,,,-99.99,,2013-04-12 10:03:00,
2013-04-12 06:13:00,26.0,24.0,29.92,ENE,75,9.0,-999.0,91,-99.99,,,-99.99,,2013-04-12 10:13:00,
2013-04-12 06:23:00,26.0,24.0,29.91,ENE,74,10.0,-999.0,92,-99.99,,,-99.99,,2013-04-12 10:23:00,
2013-04-12 06:34:00,26.0,24.0,29.91,ENE,78,10.0,-999.0,92,-99.99,,,-99.99,,2013-04-12 10:34:00,
2013-04-12 06:42:00,26.0,24.0,29.91,ENE,78,10.0,-999.0,92,-99.99,,,-99.99,,2013-04-12 10:42:00,
2013-04-12 06:52:00,26.0,24.0,29.89,ENE,65,11.0,-999.0,93,-99.99,,,-99.99,,2013-04-12 10:52:00,
2013-04-12 07:03:00,26.0,24.0,29.87,ENE,61,10.0,-999.0,92,-99.99,,,-99.99,,2013-04-12 11:03:00,
2013-04-12 07:13:00,26.0,24.0,29.87,ENE,61,10.0,-999.0,92,-99.99,,,-99.99,,2013-04-12 11:13:00,
2013-04-12 07:22:00,26.0,24.0,29.87,ENE,64,9.0,-999.0,92,-99.99,,,-99.99,,2013-04-12 11:22:00,
2013-04-12 07:33:00,26.0,24.0,29.87,East,80,10.0,-999.0,92,-99.99,,,-99.99,,2013-04-12 11:33:00,
2013-04-12 07:43:00,26.0,24.0,29.87,East,80,10.0,-999.0,92,-99.99,,,-99.99,,2013-04-12 11:43:00,
2013-04-12 07:52:00,26.0,24.0,29.85,ENE,63,8.0,-999.0,92,-99.99,,,-99.99,,2013-04-12 11:52:00,
2013-04-12 08:03:00,26.0,24.0,29.87,ESE,108,8.0,-999.0,92,-99.99,,,-99.99,,2013-04-12 12:03:00,
2013-04-12 08:13:00,26.0,24.0,29.87,ESE,108,8.0,-999.0,92,-99.99,,,-99.99,,2013-04-12 12:13:00,
2013-04-12 08:22:00,26.0,24.0,29.87,East,95,7.0,-999.0,92,-99.99,,,-99.99,,2013-04-12 12:22:00,
2013-04-12 08:33:00,26.0,24.0,29.87,East,95,7.0,-999.0,92,-99.99,,,-99.99,,2013-04-12 12:33:00,
2013-04-12 08:42:00,26.0,24.0,29.87,East,95,7.0,-999.0,92,-99.99,,,-99.99,,2013-04-12 12:42:00,
2013-04-12 08:52:00,26.0,24.0,29.85,East,79,7.0,-999.0,93,-99.99,,,-99.99,,2013-04-12 12:52:00,
2013-04-12 09:03:00,26.0,24.0,29.85,ENE,76,7.0,-999.0,93,-99.99,,,-99.99,,2013-04-12 13:03:00,
2013-04-12 09:12:00,26.0,24.0,29.85,ENE,76,7.0,-999.0,93,-99.99,,,-99.99,,2013-04-12 13:12:00,
2013-04-12 09:22:00,26.0,24.0,29.84,ENE,76,8.0,-999.0,93,-99.99,,,-99.99,,2013-04-12 13:22:00,
2013-04-12 09:32:00,26.0,24.0,29.84,ESE,115,9.0,-999.0,93,-99.99,,,-99.99,,2013-04-12 13:32:00,
2013-04-12 09:42:00,26.0,24.0,29.84,ESE,115,9.0,-999.0,93,-99.99,,,-99.99,,2013-04-12 13:42:00,
2013-04-12 09:52:00,27.0,25.0,29.83,ENE,77,9.0,-999.0,93,-99.99,,,-99.99,,2013-04-12 13:52:00,
2013-04-12 10:03:00,27.0,25.0,29.83,NE,55,7.0,-999.0,93,-99.99,,,-99.99,,2013-04-12 14:03:00,
2013-04-12 10:13:00,27.0,25.0,29.83,NE,55,7.0,-999.0,93,-99.99,,,-99.99,,2013-04-12 14:13:00,
2013-04-12 10:23:00,27.0,25.0,29.83,ENE,68,7.0,-999.0,93,-99.99,,,-99.99,,2013-04-12 14:23:00,
2013-04-12 10:33:00,27.0,25.0,29.82,East,82,7.0,-999.0,93,-99.99,,,-99.99,,2013-04-12 14:33:00,
2013-04-12 10:42:00,27.0,25.0,29.82,East,82,7.0,-999.0,93,-99.99,,,-99.99,,2013-04-12 14:42:00,
2013-04-12 10:53:00,28.0,26.0,29.80,ENE,65,7.0,-999.0,92,-99.99,,,-99.99,,2013-04-12 14:53:00,
2013-04-12 11:03:00,28.0,26.0,29.80,ENE,73,9.0,-999.0,92,-99.99,,,-99.99,,2013-04-12 15:03:00,
2013-04-12 11:12:00,28.0,26.0,29.80,ENE,73,9.0,-999.0,92,-99.99,,,-99.99,,2013-04-12 15:12:00,
2013-04-12 11:22:00,28.0,26.0,29.81,East,92,9.0,-999.0,92,-99.99,,,-99.99,,2013-04-12 15:22:00,
2013-04-12 11:33:00,29.0,27.0,29.80,NE,53,6.0,-999.0,91,-99.99,,,-99.99,,2013-04-12 15:33:00,
2013-04-12 11:43:00,29.0,27.0,29.80,NE,53,6.0,-999.0,91,-99.99,,,-99.99,,2013-04-12 15:43:00,
2013-04-12 11:53:00,29.0,26.0,29.80,East,101,8.0,-999.0,90,-99.99,,,-99.99,,2013-04-12 15:53:00,
2013-04-12 12:04:00,30.0,27.0,29.80,ESE,113,10.0,-999.0,89,-99.99,,,-99.99,,2013-04-12 16:04:00,
2013-04-12 12:13:00,30.0,27.0,29.80,ESE,113,10.0,-999.0,89,-99.99,,,-99.99,,2013-04-12 16:13:00,
2013-04-12 12:23:00,30.0,27.0,29.81,ENE,75,9.0,-999.0,87,-99.99,,,-99.99,,2013-04-12 16:23:00,
2013-04-12 12:33:00,30.0,26.0,29.80,ENE,75,9.0,-999.0,86,-99.99,,,-99.99,,2013-04-12 16:33:00,
2013-04-12 12:43:00,30.0,26.0,29.80,ENE,75,9.0,-999.0,86,-99.99,,,-99.99,,2013-04-12 16:43:00,
2013-04-12 12:53:00,30.0,26.0,29.81,East,85,10.0,-999.0,86,-99.99,,,-99.99,,2013-04-12 16:53:00,
2013-04-12 13:04:00,30.0,26.0,29.82,East,91,7.0,-999.0,85,-99.99,,,-99.99,,2013-04-12 17:04:00,
2013-04-12 13:12:00,30.0,26.0,29.82,East,91,7.0,-999.0,85,-99.99,,,-99.99,,2013-04-12 17:12:00,
2013-04-12 13:23:00,31.0,27.0,29.82,East,96,8.0,-999.0,85,-99.99,,,-99.99,,2013-04-12 17:23:00,
2013-04-12 13:34:00,31.0,27.0,29.81,ESE,102,8.0,-999.0,85,-99.99,,,-99.99,,2013-04-12 17:34:00,
2013-04-12 13:46:00,31.0,27.0,29.81,ESE,102,8.0,-999.0,85,-99.99,,,-99.99,,2013-04-12 17:46:00,
2013-04-12 13:59:00,31.0,27.0,29.81,East,82,7.0,-999.0,85,-99.99,,,-99.99,,2013-04-12 17:59:00,
2013-04-12 14:11:00,31.0,27.0,29.81,East,95,9.0,-999.0,86,-99.99,,,-99.99,,2013-04-12 18:11:00,
2013-04-12 14:23:00,31.0,27.0,29.81,East,95,9.0,-999.0,86,-99.99,,,-99.99,,2013-04-12 18:23:00,
2013-04-12 15:27:00,31.0,28.0,29.80,ENE,71,8.0,-999.0,87,-99.99,,,-99.99,,2013-04-12 19:27:00,
2013-04-12 15:33:00,31.0,27.0,29.80,ESE,106,10.0,-999.0,85,-99.99,,,-99.99,,2013-04-12 19:33:00,
2013-04-12 15:43:00,31.0,27.0,29.80,ESE,106,10.0,-999.0,85,-99.99,,,-99.99,,2013-04-12 19:43:00,
2013-04-12 15:52:00,31.0,26.0,29.80,East,82,9.0,-999.0,83,-99.99,,,-99.99,,2013-04-12 19:52:00,
2013-04-12 16:02:00,32.0,27.0,29.80,East,98,9.0,-999.0,81,-99.99,,,-99.99,,2013-04-12 20:02:00,
2013-04-12 16:13:00,32.0,27.0,29.80,East,98,9.0,-999.0,81,-99.99,,,-99.99,,2013-04-12 20:13:00,
2013-04-12 16:22:00,32.0,26.0,29.80,East,79,8.0,-999.0,79,-99.99,,,-99.99,,2013-04-12 20:22:00,
2013-04-12 16:33:00,33.0,27.0,29.80,East,101,8.0,-999.0,78,-99.99,,,-99.99,,2013-04-12 20:33:00,
2013-04-12 16:42:00,33.0,27.0,29.80,East,101,8.0,-999.0,78,-99.99,,,-99.99,,2013-04-12 20:42:00,
2013-04-12 16:52:00,33.0,27.0,29.80,ENE,72,6.0,-999.0,78,-99.99,,,-99.99,,2013-04-12 20:52:00,
2013-04-12 17:03:00,33.0,27.0,29.80,East,92,8.0,-999.0,77,-99.99,,,-99.99,,2013-04-12 21:03:00,
2013-04-12 17:12:00,33.0,27.0,29.80,East,92,8.0,-999.0,77,-99.99,,,-99.99,,2013-04-12 21:12:00,
2013-04-12 17:22:00,33.0,26.0,29.80,ENE,75,8.0,-999.0,76,-99.99,,,-99.99,,2013-04-12 21:22:00,
2013-04-12 17:33:00,33.0,26.0,29.80,ENE,76,7.0,-999.0,76,-99.99,,,-99.99,,2013-04-12 21:33:00,
2013-04-12 17:43:00,33.0,26.0,29.80,ENE,76,7.0,-999.0,76,-99.99,,,-99.99,,2013-04-12 21:43:00,
2013-04-12 17:52:00,33.0,26.0,29.79,ESE,110,7.0,-999.0,75,-99.99,,,-99.99,,2013-04-12 21:52:00,
2013-04-12 18:02:00,33.0,26.0,29.79,ENE,78,6.0,-999.0,75,-99.99,,,-99.99,,2013-04-12 22:02:00,
2013-04-12 18:13:00,33.0,26.0,29.79,ENE,78,6.0,-999.0,75,-99.99,,,-99.99,,2013-04-12 22:13:00,
2013-04-12 18:22:00,33.0,26.0,29.79,ENE,73,7.0,-999.0,75,-99.99,,,-99.99,,2013-04-12 22:22:00,
2013-04-12 18:33:00,33.0,26.0,29.80,East,99,6.0,-999.0,76,-99.99,,,-99.99,,2013-04-12 22:33:00,
2013-04-12 18:43:00,33.0,26.0,29.80,East,99,6.0,-999.0,76,-99.99,,,-99.99,,2013-04-12 22:43:00,
2013-04-12 18:52:00,33.0,27.0,29.81,East,96,6.0,-999.0,77,-99.99,,,-99.99,,2013-04-12 22:52:00,
2013-04-12 19:04:00,33.0,27.0,29.81,East,83,5.0,-999.0,77,-99.99,,,-99.99,,2013-04-12 23:04:00,
2013-04-12 19:12:00,33.0,27.0,29.81,East,83,5.0,-999.0,77,-99.99,,,-99.99,,2013-04-12 23:12:00,
2013-04-12 19:22:00,33.0,27.0,29.81,East,94,4.0,-999.0,77,-99.99,,,-99.99,,2013-04-12 23:22:00,
2013-04-12 19:32:00,33.0,27.0,29.81,East,98,4.0,-999.0,77,-99.99,,,-99.99,,2013-04-12 23:32:00,
2013-04-12 19:42:00,33.0,27.0,29.81,East,98,4.0,-999.0,77,-99.99,,,-99.99,,2013-04-12 23:42:00,
2013-04-12 19:52:00,33.0,27.0,29.81,East,96,3.0,-999.0,77,-99.99,,,-99.99,,2013-04-12 23:52:00,
2013-04-12 20:02:00,33.0,27.0,29.81,East,96,3.0,-999.0,77,-99.99,,,-99.99,,2013-04-13 00:02:00,
2013-04-12 20:12:00,33.0,27.0,29.81,East,96,3.0,-999.0,77,-99.99,,,-99.99,,2013-04-13 00:12:00,
2013-04-12 20:22:00,32.0,26.0,29.81,East,96,3.0,-999.0,79,-99.99,,,-99.99,,2013-04-13 00:22:00,
2013-04-12 20:32:00,32.0,27.0,29.81,East,88,1.0,-999.0,81,-99.99,,,-99.99,,2013-04-13 00:32:00,
2013-04-12 20:42:00,32.0,27.0,29.81,East,88,1.0,-999.0,81,-99.99,,,-99.99,,2013-04-13 00:42:00,
2013-04-12 20:52:00,32.0,27.0,29.82,East,101,2.0,-999.0,82,-99.99,,,-99.99,,2013-04-13 00:52:00,
2013-04-12 21:02:00,31.0,27.0,29.82,ESE,108,1.0,-999.0,84,-99.99,,,-99.99,,2013-04-13 01:02:00,
2013-04-12 21:13:00,31.0,27.0,29.82,ESE,108,1.0,-999.0,84,-99.99,,,-99.99,,2013-04-13 01:13:00,
2013-04-12 21:22:00,31.0,27.0,29.82,ESE,108,0.0,-999.0,86,-99.99,,,-99.99,,2013-04-13 01:22:00,
2013-04-12 21:33:00,31.0,28.0,29.82,ESE,107,0.0,-999.0,88,-99.99,,,-99.99,,2013-04-13 01:33:00,
2013-04-12 21:43:00,31.0,28.0,29.82,ESE,107,0.0,-999.0,88,-99.99,,,-99.99,,2013-04-13 01:43:00,
2013-04-12 21:52:00,30.0,27.0,29.83,ESE,108,0.0,-999.0,89,-99.99,,,-99.99,,2013-04-13 01:52:00,
2013-04-12 22:02:00,30.0,27.0,29.82,ESE,107,0.0,-999.0,90,-99.99,,,-99.99,,2013-04-13 02:02:00,
2013-04-12 22:12:00,30.0,27.0,29.82,ESE,107,0.0,-999.0,90,-99.99,,,-99.99,,2013-04-13 02:12:00,
2013-04-12 22:23:00,30.0,28.0,29.83,ESE,108,1.0,-999.0,91,-99.99,,,-99.99,,2013-04-13 02:23:00,
2013-04-12 22:33:00,30.0,28.0,29.83,ESE,108,0.0,-999.0,91,-99.99,,,-99.99,,2013-04-13 02:33:00,
2013-04-12 22:42:00,30.0,28.0,29.83,ESE,108,0.0,-999.0,91,-99.99,,,-99.99,,2013-04-13 02:42:00,
2013-04-12 22:52:00,30.0,28.0,29.83,ESE,107,0.0,-999.0,91,-99.99,,,-99.99,,2013-04-13 02:52:00,
2013-04-12 23:03:00,30.0,28.0,29.83,ESE,107,0.0,-999.0,91,-99.99,,,-99.99,,2013-04-13 03:03:00,
2013-04-12 23:12:00,30.0,28.0,29.83,ESE,107,0.0,-999.0,91,-99.99,,,-99.99,,2013-04-13 03:12:00,
2013-04-12 23:23:00,30.0,28.0,29.82,ESE,107,1.0,-999.0,91,-99.99,,,-99.99,,2013-04-13 03:23:00,
2013-04-12 23:33:00,30.0,27.0,29.83,ESE,107,2.0,-999.0,90,-99.99,,,-99.99,,2013-04-13 03:33:00,
2013-04-12 23:43:00,30.0,27.0,29.83,ESE,107,2.0,-999.0,90,-99.99,,,-99.99,,2013-04-13 03:43:00,
2013-04-12 23:53:00,30.0,27.0,29.82,ESE,107,1.0,-999.0,90,-99.99,,,-99.99,,2013-04-13 03:53:00,